首页
METAR-TAF:

METAR-TAF

机场 :

哈利法克斯罗伯特·洛恩·斯坦菲尔德国际机场

哈利法克斯, 新斯科舍, 加拿大

纬度: 44-53N, 经度: 063-30W, 海拔: 145米

当前天气观测

该预报发布于33分钟前的10:00 UTC
风速7节,风向西南
温度 17°C
湿度 88%
气压 1025 hPa
能見度: 16.1公里
多云层高于25000英尺

METAR: CYHZ 191000Z CCA 22007KT 10SM BKN250 17/15 A3027 RMK CI5 SLP252

时间: 07:33 (10:33 UTC)

预报

该预报发布于1小时和53分钟前的08:40 UTC
预报有效从19日的 09点(UTC)到 20日的 06点(UTC)
风速6节,风向
能見度: 9.7公里
散云层高于400英尺
轻雾
短暂存在
从 19日的 09点(UTC)到 19日的 11点(UTC)
能見度: 3.2公里
多云层高于400英尺
轻雾
几率 30%
从 19日的 09点(UTC)到 19日的 11点(UTC)
能見度: 0.8公里
多云层高于200英尺
从 19日的 1100点(UTC)
风速8节,风向南转西南
能見度: 10公里
少量云层高于300英尺
从 19日的 1900点(UTC)
风速12节,风向西南
能見度: 10公里
多云层高于6000英尺
从 20日的 0000点(UTC)
风速10节,风向西南
能見度: 10公里
少量云层高于6000英尺

TAF: CYHZ 190840Z 1909/2006 19006KT 6SM BR SCT004 TEMPO 1909/1911 2SM BR BKN004 PROB30 1909/1911 1/2SM FG BKN002 FM191100 21008KT P6SM FEW003 FM191900 22012KT P6SM BKN060 FM200000 22010KT P6SM FEW060 RMK NXT FCST BY 191200Z

超过4000个机场的气象观测和天气预报(METAR&TAF报告)。

可查询的气象台以黄色和红色小点在地图上表示。

将鼠标移到小点上方,可查看气象台名称。

然后点击查看天气观测和预报。

如需切换地图:点击带黑十字的绿色按钮放大地图;点击带横线的绿色按钮缩小地图;或者点击绿色箭头查看邻近地区的地图。


METAR-TAF: